sensor_id;sensor_type;location;lat;lon;timestamp;temperature;humidity
16114;DHT22;8161;-33.910;151.156;2022-10-31T00:01:22;26.40;99.90
16114;DHT22;8161;-33.910;151.156;2022-10-31T00:03:50;26.50;99.90
16114;DHT22;8161;-33.910;151.156;2022-10-31T00:06:18;27.00;99.90
16114;DHT22;8161;-33.910;151.156;2022-10-31T00:08:53;26.60;99.90
16114;DHT22;8161;-33.910;151.156;2022-10-31T00:11:21;26.80;99.90
16114;DHT22;8161;-33.910;151.156;2022-10-31T00:13:48;27.00;99.90
16114;DHT22;8161;-33.910;151.156;2022-10-31T00:16:18;27.20;99.90
16114;DHT22;8161;-33.910;151.156;2022-10-31T00:18:50;27.30;99.90
16114;DHT22;8161;-33.910;151.156;2022-10-31T00:21:18;27.50;99.90
16114;DHT22;8161;-33.910;151.156;2022-10-31T00:23:45;27.60;99.90
16114;DHT22;8161;-33.910;151.156;2022-10-31T00:26:12;27.50;99.90
16114;DHT22;8161;-33.910;151.156;2022-10-31T00:28:40;27.30;99.90
16114;DHT22;8161;-33.910;151.156;2022-10-31T00:31:09;27.20;99.90
16114;DHT22;8161;-33.910;151.156;2022-10-31T00:33:38;27.20;99.90
16114;DHT22;8161;-33.910;151.156;2022-10-31T00:36:07;27.00;99.90
16114;DHT22;8161;-33.910;151.156;2022-10-31T00:38:35;27.00;99.90
16114;DHT22;8161;-33.910;151.156;2022-10-31T00:41:02;26.90;99.90
16114;DHT22;8161;-33.910;151.156;2022-10-31T00:43:29;27.10;99.90
16114;DHT22;8161;-33.910;151.156;2022-10-31T00:45:57;27.40;99.90
16114;DHT22;8161;-33.910;151.156;2022-10-31T00:48:24;27.80;99.90
16114;DHT22;8161;-33.910;151.156;2022-10-31T00:50:52;28.10;99.90
16114;DHT22;8161;-33.910;151.156;2022-10-31T00:53:20;28.30;99.90
16114;DHT22;8161;-33.910;151.156;2022-10-31T00:55:47;28.30;99.90
16114;DHT22;8161;-33.910;151.156;2022-10-31T00:58:14;28.20;99.90
16114;DHT22;8161;-33.910;151.156;2022-10-31T01:00:42;28.10;99.90
16114;DHT22;8161;-33.910;151.156;2022-10-31T01:03:10;27.50;99.90
16114;DHT22;8161;-33.910;151.156;2022-10-31T01:05:37;27.00;99.90
16114;DHT22;8161;-33.910;151.156;2022-10-31T01:08:04;26.80;99.90
16114;DHT22;8161;-33.910;151.156;2022-10-31T01:10:32;26.40;99.90
16114;DHT22;8161;-33.910;151.156;2022-10-31T01:12:59;26.30;99.90
16114;DHT22;8161;-33.910;151.156;2022-10-31T01:15:26;26.50;99.90
16114;DHT22;8161;-33.910;151.156;2022-10-31T01:17:53;26.90;99.90
16114;DHT22;8161;-33.910;151.156;2022-10-31T01:20:21;27.50;99.90
16114;DHT22;8161;-33.910;151.156;2022-10-31T01:22:48;27.80;99.90
16114;DHT22;8161;-33.910;151.156;2022-10-31T01:25:15;28.20;99.90
16114;DHT22;8161;-33.910;151.156;2022-10-31T01:27:43;28.40;99.90
16114;DHT22;8161;-33.910;151.156;2022-10-31T01:30:11;28.60;99.90
16114;DHT22;8161;-33.910;151.156;2022-10-31T01:32:38;28.70;99.90
16114;DHT22;8161;-33.910;151.156;2022-10-31T01:35:05;28.70;99.90
16114;DHT22;8161;-33.910;151.156;2022-10-31T01:37:33;28.70;99.90
16114;DHT22;8161;-33.910;151.156;2022-10-31T01:40:00;28.60;99.90
16114;DHT22;8161;-33.910;151.156;2022-10-31T01:42:27;28.50;99.90
16114;DHT22;8161;-33.910;151.156;2022-10-31T01:45:00;28.50;99.90
16114;DHT22;8161;-33.910;151.156;2022-10-31T01:47:36;28.50;99.90
16114;DHT22;8161;-33.910;151.156;2022-10-31T01:50:14;28.60;99.90
16114;DHT22;8161;-33.910;151.156;2022-10-31T01:52:48;28.60;99.90
16114;DHT22;8161;-33.910;151.156;2022-10-31T01:57:53;28.60;99.90
16114;DHT22;8161;-33.910;151.156;2022-10-31T02:00:22;28.60;99.90
16114;DHT22;8161;-33.910;151.156;2022-10-31T02:02:50;28.70;99.90
16114;DHT22;8161;-33.910;151.156;2022-10-31T02:05:23;28.70;99.90
16114;DHT22;8161;-33.910;151.156;2022-10-31T02:10:32;29.10;99.90
16114;DHT22;8161;-33.910;151.156;2022-10-31T02:13:03;29.30;99.90
16114;DHT22;8161;-33.910;151.156;2022-10-31T02:15:32;29.30;99.90
16114;DHT22;8161;-33.910;151.156;2022-10-31T02:18:01;29.10;99.90
16114;DHT22;8161;-33.910;151.156;2022-10-31T02:20:46;28.90;99.90
16114;DHT22;8161;-33.910;151.156;2022-10-31T02:31:58;27.90;99.90
16114;DHT22;8161;-33.910;151.156;2022-10-31T02:38:46;27.70;99.90
16114;DHT22;8161;-33.910;151.156;2022-10-31T02:46:02;27.20;99.90
16114;DHT22;8161;-33.910;151.156;2022-10-31T02:48:34;27.20;99.90
16114;DHT22;8161;-33.910;151.156;2022-10-31T02:51:04;27.20;99.90
16114;DHT22;8161;-33.910;151.156;2022-10-31T02:53:37;27.10;99.90
16114;DHT22;8161;-33.910;151.156;2022-10-31T02:56:18;26.90;99.90
16114;DHT22;8161;-33.910;151.156;2022-10-31T02:58:49;26.90;99.90
16114;DHT22;8161;-33.910;151.156;2022-10-31T03:04:11;26.70;99.90
16114;DHT22;8161;-33.910;151.156;2022-10-31T03:09:46;26.60;99.90
16114;DHT22;8161;-33.910;151.156;2022-10-31T03:12:28;26.50;99.90
16114;DHT22;8161;-33.910;151.156;2022-10-31T03:17:49;26.40;99.90
16114;DHT22;8161;-33.910;151.156;2022-10-31T03:20:22;26.40;99.90
16114;DHT22;8161;-33.910;151.156;2022-10-31T03:22:51;26.30;99.90
16114;DHT22;8161;-33.910;151.156;2022-10-31T03:25:19;26.30;99.90
16114;DHT22;8161;-33.910;151.156;2022-10-31T03:27:47;26.20;99.90
16114;DHT22;8161;-33.910;151.156;2022-10-31T03:30:15;26.20;99.90
16114;DHT22;8161;-33.910;151.156;2022-10-31T03:32:55;26.20;99.90
16114;DHT22;8161;-33.910;151.156;2022-10-31T03:35:24;26.30;99.90
16114;DHT22;8161;-33.910;151.156;2022-10-31T03:37:54;26.30;99.90
16114;DHT22;8161;-33.910;151.156;2022-10-31T03:40:23;26.30;99.90
16114;DHT22;8161;-33.910;151.156;2022-10-31T03:42:56;26.30;99.90
16114;DHT22;8161;-33.910;151.156;2022-10-31T03:45:27;26.20;99.90
16114;DHT22;8161;-33.910;151.156;2022-10-31T03:47:58;26.20;99.90
16114;DHT22;8161;-33.910;151.156;2022-10-31T03:50:32;26.10;99.90
16114;DHT22;8161;-33.910;151.156;2022-10-31T03:53:16;26.20;99.90
16114;DHT22;8161;-33.910;151.156;2022-10-31T03:56:01;26.20;99.90
16114;DHT22;8161;-33.910;151.156;2022-10-31T03:58:38;26.30;99.90
16114;DHT22;8161;-33.910;151.156;2022-10-31T04:01:11;26.40;99.90
16114;DHT22;8161;-33.910;151.156;2022-10-31T04:03:41;26.60;99.90
16114;DHT22;8161;-33.910;151.156;2022-10-31T04:06:12;26.70;99.90
16114;DHT22;8161;-33.910;151.156;2022-10-31T04:08:56;26.90;99.90
16114;DHT22;8161;-33.910;151.156;2022-10-31T04:11:28;26.90;99.90
16114;DHT22;8161;-33.910;151.156;2022-10-31T04:13:58;27.10;99.90
16114;DHT22;8161;-33.910;151.156;2022-10-31T04:16:27;27.30;99.90
16114;DHT22;8161;-33.910;151.156;2022-10-31T04:18:55;27.50;99.90
16114;DHT22;8161;-33.910;151.156;2022-10-31T04:21:28;27.60;99.90
16114;DHT22;8161;-33.910;151.156;2022-10-31T04:23:56;27.60;99.90
16114;DHT22;8161;-33.910;151.156;2022-10-31T04:26:24;27.50;99.90
16114;DHT22;8161;-33.910;151.156;2022-10-31T04:28:51;27.40;99.90
16114;DHT22;8161;-33.910;151.156;2022-10-31T04:31:18;27.30;99.90
16114;DHT22;8161;-33.910;151.156;2022-10-31T04:33:46;27.30;99.90
16114;DHT22;8161;-33.910;151.156;2022-10-31T04:36:13;27.20;99.90
16114;DHT22;8161;-33.910;151.156;2022-10-31T04:38:41;27.20;99.90
16114;DHT22;8161;-33.910;151.156;2022-10-31T04:41:08;27.20;99.90
16114;DHT22;8161;-33.910;151.156;2022-10-31T04:43:36;27.00;99.90
16114;DHT22;8161;-33.910;151.156;2022-10-31T04:46:03;26.90;99.90
16114;DHT22;8161;-33.910;151.156;2022-10-31T04:48:30;26.90;99.90
16114;DHT22;8161;-33.910;151.156;2022-10-31T04:51:01;26.80;99.90
16114;DHT22;8161;-33.910;151.156;2022-10-31T04:53:29;26.70;99.90
16114;DHT22;8161;-33.910;151.156;2022-10-31T04:55:59;26.60;99.90
16114;DHT22;8161;-33.910;151.156;2022-10-31T04:58:28;26.60;99.90
16114;DHT22;8161;-33.910;151.156;2022-10-31T05:00:56;26.60;99.90
16114;DHT22;8161;-33.910;151.156;2022-10-31T05:03:23;26.70;99.90
16114;DHT22;8161;-33.910;151.156;2022-10-31T05:05:50;26.70;99.90
16114;DHT22;8161;-33.910;151.156;2022-10-31T05:08:18;26.80;99.90
16114;DHT22;8161;-33.910;151.156;2022-10-31T05:10:45;26.80;99.90
16114;DHT22;8161;-33.910;151.156;2022-10-31T05:13:12;26.80;99.90
16114;DHT22;8161;-33.910;151.156;2022-10-31T05:15:41;26.80;99.90
16114;DHT22;8161;-33.910;151.156;2022-10-31T05:18:08;26.80;99.90
16114;DHT22;8161;-33.910;151.156;2022-10-31T05:20:35;26.80;99.90
16114;DHT22;8161;-33.910;151.156;2022-10-31T05:23:06;26.80;99.90
16114;DHT22;8161;-33.910;151.156;2022-10-31T05:25:33;26.80;99.90
16114;DHT22;8161;-33.910;151.156;2022-10-31T05:28:00;26.80;99.90
16114;DHT22;8161;-33.910;151.156;2022-10-31T05:30:31;26.60;99.90
16114;DHT22;8161;-33.910;151.156;2022-10-31T05:32:59;26.70;99.90
16114;DHT22;8161;-33.910;151.156;2022-10-31T05:35:29;26.70;99.90
16114;DHT22;8161;-33.910;151.156;2022-10-31T05:37:56;26.70;99.90
16114;DHT22;8161;-33.910;151.156;2022-10-31T05:40:25;26.90;99.90
16114;DHT22;8161;-33.910;151.156;2022-10-31T05:42:54;27.20;99.90
16114;DHT22;8161;-33.910;151.156;2022-10-31T05:45:22;27.40;99.90
16114;DHT22;8161;-33.910;151.156;2022-10-31T05:47:57;27.30;99.90
16114;DHT22;8161;-33.910;151.156;2022-10-31T05:50:26;27.50;99.90
16114;DHT22;8161;-33.910;151.156;2022-10-31T05:53:03;27.70;99.90
16114;DHT22;8161;-33.910;151.156;2022-10-31T05:55:31;27.80;99.90
16114;DHT22;8161;-33.910;151.156;2022-10-31T05:57:58;28.00;99.90
16114;DHT22;8161;-33.910;151.156;2022-10-31T06:00:27;28.60;99.90
16114;DHT22;8161;-33.910;151.156;2022-10-31T06:03:02;29.10;99.90
16114;DHT22;8161;-33.910;151.156;2022-10-31T06:05:30;29.60;99.90
16114;DHT22;8161;-33.910;151.156;2022-10-31T06:07:58;29.90;99.90
16114;DHT22;8161;-33.910;151.156;2022-10-31T06:10:26;30.00;99.90
16114;DHT22;8161;-33.910;151.156;2022-10-31T06:12:53;29.80;99.90
16114;DHT22;8161;-33.910;151.156;2022-10-31T06:15:20;29.70;99.90
16114;DHT22;8161;-33.910;151.156;2022-10-31T06:17:58;29.50;99.90
16114;DHT22;8161;-33.910;151.156;2022-10-31T06:20:25;29.20;99.90
16114;DHT22;8161;-33.910;151.156;2022-10-31T06:22:53;28.90;99.90
16114;DHT22;8161;-33.910;151.156;2022-10-31T06:25:20;28.70;99.90
16114;DHT22;8161;-33.910;151.156;2022-10-31T06:27:47;28.50;99.90
16114;DHT22;8161;-33.910;151.156;2022-10-31T06:30:15;28.40;99.90
16114;DHT22;8161;-33.910;151.156;2022-10-31T06:32:43;28.20;99.90
16114;DHT22;8161;-33.910;151.156;2022-10-31T06:35:10;28.00;99.90
16114;DHT22;8161;-33.910;151.156;2022-10-31T06:37:38;27.90;99.90
16114;DHT22;8161;-33.910;151.156;2022-10-31T06:40:05;27.80;99.90
16114;DHT22;8161;-33.910;151.156;2022-10-31T06:42:33;27.70;99.90
16114;DHT22;8161;-33.910;151.156;2022-10-31T06:45:00;27.60;99.90
16114;DHT22;8161;-33.910;151.156;2022-10-31T06:47:27;27.60;99.90
16114;DHT22;8161;-33.910;151.156;2022-10-31T06:49:54;27.50;99.90
16114;DHT22;8161;-33.910;151.156;2022-10-31T06:52:22;27.40;99.90
16114;DHT22;8161;-33.910;151.156;2022-10-31T06:54:49;27.30;99.90
16114;DHT22;8161;-33.910;151.156;2022-10-31T06:57:17;27.30;99.90
16114;DHT22;8161;-33.910;151.156;2022-10-31T06:59:44;27.20;99.90
16114;DHT22;8161;-33.910;151.156;2022-10-31T07:02:12;27.20;99.90
16114;DHT22;8161;-33.910;151.156;2022-10-31T07:04:40;27.20;99.90
16114;DHT22;8161;-33.910;151.156;2022-10-31T07:07:08;27.10;99.90
16114;DHT22;8161;-33.910;151.156;2022-10-31T07:09:35;27.10;99.90
16114;DHT22;8161;-33.910;151.156;2022-10-31T07:12:03;27.10;99.90
16114;DHT22;8161;-33.910;151.156;2022-10-31T07:14:30;27.10;99.90
16114;DHT22;8161;-33.910;151.156;2022-10-31T07:16:57;27.00;99.90
16114;DHT22;8161;-33.910;151.156;2022-10-31T07:19:28;27.00;99.90
16114;DHT22;8161;-33.910;151.156;2022-10-31T07:21:55;27.00;99.90
16114;DHT22;8161;-33.910;151.156;2022-10-31T07:24:23;27.00;99.90
16114;DHT22;8161;-33.910;151.156;2022-10-31T07:26:50;26.90;99.90
16114;DHT22;8161;-33.910;151.156;2022-10-31T07:29:18;26.90;99.90
16114;DHT22;8161;-33.910;151.156;2022-10-31T07:31:46;26.90;99.90
16114;DHT22;8161;-33.910;151.156;2022-10-31T07:34:13;26.80;99.90
16114;DHT22;8161;-33.910;151.156;2022-10-31T07:36:40;26.80;99.90
16114;DHT22;8161;-33.910;151.156;2022-10-31T07:39:08;26.80;99.90
16114;DHT22;8161;-33.910;151.156;2022-10-31T07:41:35;26.90;99.90
16114;DHT22;8161;-33.910;151.156;2022-10-31T07:44:02;26.80;99.90
16114;DHT22;8161;-33.910;151.156;2022-10-31T07:46:30;26.80;99.90
16114;DHT22;8161;-33.910;151.156;2022-10-31T07:48:57;26.80;99.90
16114;DHT22;8161;-33.910;151.156;2022-10-31T07:51:24;26.70;99.90
16114;DHT22;8161;-33.910;151.156;2022-10-31T07:53:51;26.70;99.90
16114;DHT22;8161;-33.910;151.156;2022-10-31T07:56:19;26.70;99.90
16114;DHT22;8161;-33.910;151.156;2022-10-31T07:58:46;26.70;99.90
16114;DHT22;8161;-33.910;151.156;2022-10-31T08:01:14;26.70;99.90
16114;DHT22;8161;-33.910;151.156;2022-10-31T08:03:41;26.70;99.90
16114;DHT22;8161;-33.910;151.156;2022-10-31T08:06:08;26.70;99.90
16114;DHT22;8161;-33.910;151.156;2022-10-31T08:08:36;26.70;99.90
16114;DHT22;8161;-33.910;151.156;2022-10-31T08:11:04;26.70;99.90
16114;DHT22;8161;-33.910;151.156;2022-10-31T08:13:31;26.70;99.90
16114;DHT22;8161;-33.910;151.156;2022-10-31T08:15:59;26.70;99.90
16114;DHT22;8161;-33.910;151.156;2022-10-31T08:18:30;26.60;99.90
16114;DHT22;8161;-33.910;151.156;2022-10-31T08:20:58;26.60;99.90
16114;DHT22;8161;-33.910;151.156;2022-10-31T08:23:25;26.70;99.90
16114;DHT22;8161;-33.910;151.156;2022-10-31T08:25:52;26.60;99.90
16114;DHT22;8161;-33.910;151.156;2022-10-31T08:28:19;26.60;99.90
16114;DHT22;8161;-33.910;151.156;2022-10-31T08:30:47;26.60;99.90
16114;DHT22;8161;-33.910;151.156;2022-10-31T08:33:16;26.60;99.90
16114;DHT22;8161;-33.910;151.156;2022-10-31T08:35:44;26.60;99.90
16114;DHT22;8161;-33.910;151.156;2022-10-31T08:38:12;26.60;99.90
16114;DHT22;8161;-33.910;151.156;2022-10-31T08:40:40;26.60;99.90
16114;DHT22;8161;-33.910;151.156;2022-10-31T08:43:12;26.50;99.90
16114;DHT22;8161;-33.910;151.156;2022-10-31T08:45:40;26.50;99.90
16114;DHT22;8161;-33.910;151.156;2022-10-31T08:48:11;26.50;99.90
16114;DHT22;8161;-33.910;151.156;2022-10-31T08:50:39;26.50;99.90
16114;DHT22;8161;-33.910;151.156;2022-10-31T08:55:39;26.50;99.90
16114;DHT22;8161;-33.910;151.156;2022-10-31T08:58:11;26.50;99.90
16114;DHT22;8161;-33.910;151.156;2022-10-31T09:00:39;26.50;99.90
16114;DHT22;8161;-33.910;151.156;2022-10-31T09:03:13;26.40;99.90
16114;DHT22;8161;-33.910;151.156;2022-10-31T09:05:41;26.50;99.90
16114;DHT22;8161;-33.910;151.156;2022-10-31T09:08:09;26.40;99.90
16114;DHT22;8161;-33.910;151.156;2022-10-31T09:10:37;26.30;99.90
16114;DHT22;8161;-33.910;151.156;2022-10-31T09:13:13;26.30;99.90
16114;DHT22;8161;-33.910;151.156;2022-10-31T09:15:42;26.30;99.90
16114;DHT22;8161;-33.910;151.156;2022-10-31T09:18:11;26.30;99.90
16114;DHT22;8161;-33.910;151.156;2022-10-31T09:20:40;26.20;99.90
16114;DHT22;8161;-33.910;151.156;2022-10-31T09:23:18;26.20;99.90
16114;DHT22;8161;-33.910;151.156;2022-10-31T09:25:48;26.20;99.90
16114;DHT22;8161;-33.910;151.156;2022-10-31T09:28:17;26.20;99.90
16114;DHT22;8161;-33.910;151.156;2022-10-31T09:30:49;26.10;99.90
16114;DHT22;8161;-33.910;151.156;2022-10-31T09:33:18;26.00;99.90
16114;DHT22;8161;-33.910;151.156;2022-10-31T09:35:46;25.70;99.90
16114;DHT22;8161;-33.910;151.156;2022-10-31T09:38:16;25.50;99.90
16114;DHT22;8161;-33.910;151.156;2022-10-31T09:51:39;24.80;99.90
16114;DHT22;8161;-33.910;151.156;2022-10-31T09:56:44;24.80;99.90
16114;DHT22;8161;-33.910;151.156;2022-10-31T10:02:29;24.60;99.90
16114;DHT22;8161;-33.910;151.156;2022-10-31T10:05:08;24.50;99.90
16114;DHT22;8161;-33.910;151.156;2022-10-31T10:07:51;24.40;99.90
16114;DHT22;8161;-33.910;151.156;2022-10-31T10:21:35;24.40;99.90
16114;DHT22;8161;-33.910;151.156;2022-10-31T10:27:19;24.50;99.90
16114;DHT22;8161;-33.910;151.156;2022-10-31T10:30:02;24.50;99.90
16114;DHT22;8161;-33.910;151.156;2022-10-31T10:32:31;24.60;99.90
16114;DHT22;8161;-33.910;151.156;2022-10-31T10:41:31;24.60;99.90
16114;DHT22;8161;-33.910;151.156;2022-10-31T10:44:24;24.50;99.90
16114;DHT22;8161;-33.910;151.156;2022-10-31T10:47:05;24.50;99.90
16114;DHT22;8161;-33.910;151.156;2022-10-31T10:49:53;24.40;99.90
16114;DHT22;8161;-33.910;151.156;2022-10-31T10:52:31;24.30;99.90
16114;DHT22;8161;-33.910;151.156;2022-10-31T10:58:03;24.10;99.90
16114;DHT22;8161;-33.910;151.156;2022-10-31T11:00:51;24.10;99.90
16114;DHT22;8161;-33.910;151.156;2022-10-31T11:03:20;24.10;99.90
16114;DHT22;8161;-33.910;151.156;2022-10-31T11:05:57;23.90;99.90
16114;DHT22;8161;-33.910;151.156;2022-10-31T11:08:35;23.90;99.90
16114;DHT22;8161;-33.910;151.156;2022-10-31T11:13:41;23.80;99.90
16114;DHT22;8161;-33.910;151.156;2022-10-31T11:16:26;23.80;99.90
16114;DHT22;8161;-33.910;151.156;2022-10-31T11:18:54;23.70;99.90
16114;DHT22;8161;-33.910;151.156;2022-10-31T11:21:32;23.60;99.90
16114;DHT22;8161;-33.910;151.156;2022-10-31T11:26:42;23.50;99.90
16114;DHT22;8161;-33.910;151.156;2022-10-31T11:29:22;23.40;99.90
16114;DHT22;8161;-33.910;151.156;2022-10-31T11:31:53;23.40;99.90
16114;DHT22;8161;-33.910;151.156;2022-10-31T11:34:30;23.40;99.90
16114;DHT22;8161;-33.910;151.156;2022-10-31T11:39:32;23.20;99.90
16114;DHT22;8161;-33.910;151.156;2022-10-31T11:42:02;23.00;99.90
16114;DHT22;8161;-33.910;151.156;2022-10-31T11:44:30;23.10;99.90
16114;DHT22;8161;-33.910;151.156;2022-10-31T11:47:01;23.00;99.90
16114;DHT22;8161;-33.910;151.156;2022-10-31T11:49:38;23.10;99.90
16114;DHT22;8161;-33.910;151.156;2022-10-31T11:52:30;23.10;99.90
16114;DHT22;8161;-33.910;151.156;2022-10-31T11:57:52;23.10;99.90
16114;DHT22;8161;-33.910;151.156;2022-10-31T12:00:32;23.10;99.90
16114;DHT22;8161;-33.910;151.156;2022-10-31T12:06:03;23.10;99.90
16114;DHT22;8161;-33.910;151.156;2022-10-31T12:08:34;23.00;99.90
16114;DHT22;8161;-33.910;151.156;2022-10-31T12:16:57;22.90;99.90
16114;DHT22;8161;-33.910;151.156;2022-10-31T12:27:36;22.80;99.90
16114;DHT22;8161;-33.910;151.156;2022-10-31T12:30:14;22.80;99.90
16114;DHT22;8161;-33.910;151.156;2022-10-31T12:33:00;22.90;99.90
16114;DHT22;8161;-33.910;151.156;2022-10-31T12:38:40;22.60;99.90
16114;DHT22;8161;-33.910;151.156;2022-10-31T12:44:53;22.60;99.90
16114;DHT22;8161;-33.910;151.156;2022-10-31T12:49:46;22.00;99.90
16114;DHT22;8161;-33.910;151.156;2022-10-31T12:55:49;22.30;99.90
16114;DHT22;8161;-33.910;151.156;2022-10-31T12:59:07;22.40;99.90
16114;DHT22;8161;-33.910;151.156;2022-10-31T13:01:21;22.40;99.90
16114;DHT22;8161;-33.910;151.156;2022-10-31T13:04:05;22.40;99.90
16114;DHT22;8161;-33.910;151.156;2022-10-31T13:10:03;22.40;99.90
16114;DHT22;8161;-33.910;151.156;2022-10-31T13:12:33;22.40;99.90
16114;DHT22;8161;-33.910;151.156;2022-10-31T13:17:55;22.40;99.90
16114;DHT22;8161;-33.910;151.156;2022-10-31T13:20:32;22.40;99.90
16114;DHT22;8161;-33.910;151.156;2022-10-31T13:25:46;22.30;99.90
16114;DHT22;8161;-33.910;151.156;2022-10-31T13:29:06;22.40;99.90
16114;DHT22;8161;-33.910;151.156;2022-10-31T13:31:14;22.40;99.90
16114;DHT22;8161;-33.910;151.156;2022-10-31T13:34:03;22.40;99.90
16114;DHT22;8161;-33.910;151.156;2022-10-31T13:36:45;22.40;99.90
16114;DHT22;8161;-33.910;151.156;2022-10-31T13:42:38;22.40;99.90
16114;DHT22;8161;-33.910;151.156;2022-10-31T13:45:19;22.50;99.90
16114;DHT22;8161;-33.910;151.156;2022-10-31T13:48:20;22.50;99.90
16114;DHT22;8161;-33.910;151.156;2022-10-31T13:51:06;22.60;99.90
16114;DHT22;8161;-33.910;151.156;2022-10-31T13:53:45;22.40;99.90
16114;DHT22;8161;-33.910;151.156;2022-10-31T13:56:31;22.70;99.90
16114;DHT22;8161;-33.910;151.156;2022-10-31T13:59:20;22.70;99.90
16114;DHT22;8161;-33.910;151.156;2022-10-31T14:01:57;22.80;99.90
16114;DHT22;8161;-33.910;151.156;2022-10-31T14:04:53;22.80;99.90
16114;DHT22;8161;-33.910;151.156;2022-10-31T14:07:24;22.90;99.90
16114;DHT22;8161;-33.910;151.156;2022-10-31T14:10:03;22.90;99.90
16114;DHT22;8161;-33.910;151.156;2022-10-31T14:12:44;23.00;99.90
16114;DHT22;8161;-33.910;151.156;2022-10-31T14:15:20;23.10;99.90
16114;DHT22;8161;-33.910;151.156;2022-10-31T14:17:57;23.10;99.90
16114;DHT22;8161;-33.910;151.156;2022-10-31T14:23:13;23.20;99.90
16114;DHT22;8161;-33.910;151.156;2022-10-31T14:26:16;23.30;99.90
16114;DHT22;8161;-33.910;151.156;2022-10-31T14:28:44;23.30;99.90
16114;DHT22;8161;-33.910;151.156;2022-10-31T14:45:15;23.30;99.90
16114;DHT22;8161;-33.910;151.156;2022-10-31T14:48:01;23.30;99.90
16114;DHT22;8161;-33.910;151.156;2022-10-31T14:53:20;23.30;99.90
16114;DHT22;8161;-33.910;151.156;2022-10-31T14:55:51;23.30;99.90
16114;DHT22;8161;-33.910;151.156;2022-10-31T14:58:45;23.30;99.90
16114;DHT22;8161;-33.910;151.156;2022-10-31T15:01:29;23.30;99.90
16114;DHT22;8161;-33.910;151.156;2022-10-31T15:04:25;23.30;99.90
16114;DHT22;8161;-33.910;151.156;2022-10-31T15:07:06;23.30;99.90
16114;DHT22;8161;-33.910;151.156;2022-10-31T15:09:39;23.30;99.90
16114;DHT22;8161;-33.910;151.156;2022-10-31T15:12:24;23.30;99.90
16114;DHT22;8161;-33.910;151.156;2022-10-31T15:14:52;23.30;99.90
16114;DHT22;8161;-33.910;151.156;2022-10-31T15:17:28;23.30;99.90
16114;DHT22;8161;-33.910;151.156;2022-10-31T15:20:04;23.30;99.90
16114;DHT22;8161;-33.910;151.156;2022-10-31T15:22:34;23.30;99.90
16114;DHT22;8161;-33.910;151.156;2022-10-31T15:25:12;23.30;99.90
16114;DHT22;8161;-33.910;151.156;2022-10-31T15:27:49;23.30;99.90
16114;DHT22;8161;-33.910;151.156;2022-10-31T15:30:28;23.30;99.90
16114;DHT22;8161;-33.910;151.156;2022-10-31T15:33:00;23.30;99.90
16114;DHT22;8161;-33.910;151.156;2022-10-31T15:35:33;23.30;99.90
16114;DHT22;8161;-33.910;151.156;2022-10-31T15:38:03;23.30;99.90
16114;DHT22;8161;-33.910;151.156;2022-10-31T15:40:32;23.30;99.90
16114;DHT22;8161;-33.910;151.156;2022-10-31T15:43:06;23.30;99.90
16114;DHT22;8161;-33.910;151.156;2022-10-31T15:45:44;23.30;99.90
16114;DHT22;8161;-33.910;151.156;2022-10-31T15:48:24;23.30;99.90
16114;DHT22;8161;-33.910;151.156;2022-10-31T15:50:57;23.30;99.90
16114;DHT22;8161;-33.910;151.156;2022-10-31T15:53:46;23.30;99.90
16114;DHT22;8161;-33.910;151.156;2022-10-31T15:56:28;23.30;99.90
16114;DHT22;8161;-33.910;151.156;2022-10-31T15:58:58;23.30;99.90
16114;DHT22;8161;-33.910;151.156;2022-10-31T16:01:33;23.30;99.90
16114;DHT22;8161;-33.910;151.156;2022-10-31T16:04:19;23.30;99.90
16114;DHT22;8161;-33.910;151.156;2022-10-31T16:07:02;23.30;99.90
16114;DHT22;8161;-33.910;151.156;2022-10-31T16:09:30;23.20;99.90
16114;DHT22;8161;-33.910;151.156;2022-10-31T16:11:57;23.20;99.90
16114;DHT22;8161;-33.910;151.156;2022-10-31T16:14:31;23.20;99.90
16114;DHT22;8161;-33.910;151.156;2022-10-31T16:17:03;23.20;99.90
16114;DHT22;8161;-33.910;151.156;2022-10-31T16:19:35;23.20;99.90
16114;DHT22;8161;-33.910;151.156;2022-10-31T16:22:08;23.20;99.90
16114;DHT22;8161;-33.910;151.156;2022-10-31T16:24:53;23.20;99.90
16114;DHT22;8161;-33.910;151.156;2022-10-31T16:27:23;23.10;99.90
16114;DHT22;8161;-33.910;151.156;2022-10-31T16:29:59;23.20;99.90
16114;DHT22;8161;-33.910;151.156;2022-10-31T16:32:54;23.20;99.90
16114;DHT22;8161;-33.910;151.156;2022-10-31T16:35:27;23.10;99.90
16114;DHT22;8161;-33.910;151.156;2022-10-31T16:37:55;23.20;99.90
16114;DHT22;8161;-33.910;151.156;2022-10-31T16:40:22;23.10;99.90
16114;DHT22;8161;-33.910;151.156;2022-10-31T16:42:51;23.10;99.90
16114;DHT22;8161;-33.910;151.156;2022-10-31T16:45:22;23.10;99.90
16114;DHT22;8161;-33.910;151.156;2022-10-31T16:47:50;23.10;99.90
16114;DHT22;8161;-33.910;151.156;2022-10-31T16:50:23;23.10;99.90
16114;DHT22;8161;-33.910;151.156;2022-10-31T16:52:51;23.10;99.90
16114;DHT22;8161;-33.910;151.156;2022-10-31T16:55:19;23.10;99.90
16114;DHT22;8161;-33.910;151.156;2022-10-31T16:57:52;23.10;99.90
16114;DHT22;8161;-33.910;151.156;2022-10-31T17:00:24;23.10;99.90
16114;DHT22;8161;-33.910;151.156;2022-10-31T17:02:53;23.10;99.90
16114;DHT22;8161;-33.910;151.156;2022-10-31T17:05:24;23.10;99.90
16114;DHT22;8161;-33.910;151.156;2022-10-31T17:08:00;23.10;99.90
16114;DHT22;8161;-33.910;151.156;2022-10-31T17:10:27;23.10;99.90
16114;DHT22;8161;-33.910;151.156;2022-10-31T17:12:55;23.00;99.90
16114;DHT22;8161;-33.910;151.156;2022-10-31T17:15:25;23.10;99.90
16114;DHT22;8161;-33.910;151.156;2022-10-31T17:17:54;23.10;99.90
16114;DHT22;8161;-33.910;151.156;2022-10-31T17:20:28;23.10;99.90
16114;DHT22;8161;-33.910;151.156;2022-10-31T17:22:56;23.10;99.90
16114;DHT22;8161;-33.910;151.156;2022-10-31T17:25:26;23.10;99.90
16114;DHT22;8161;-33.910;151.156;2022-10-31T17:27:54;23.20;99.90
16114;DHT22;8161;-33.910;151.156;2022-10-31T17:30:22;23.10;99.90
16114;DHT22;8161;-33.910;151.156;2022-10-31T17:32:50;23.10;99.90
16114;DHT22;8161;-33.910;151.156;2022-10-31T17:35:19;23.10;99.90
16114;DHT22;8161;-33.910;151.156;2022-10-31T17:37:46;23.20;99.90
16114;DHT22;8161;-33.910;151.156;2022-10-31T17:40:17;23.20;99.90
16114;DHT22;8161;-33.910;151.156;2022-10-31T17:42:52;23.20;99.90
16114;DHT22;8161;-33.910;151.156;2022-10-31T17:45:21;23.10;99.90
16114;DHT22;8161;-33.910;151.156;2022-10-31T17:47:49;23.20;99.90
16114;DHT22;8161;-33.910;151.156;2022-10-31T17:50:22;23.10;99.90
16114;DHT22;8161;-33.910;151.156;2022-10-31T17:52:50;23.10;99.90
16114;DHT22;8161;-33.910;151.156;2022-10-31T17:55:18;23.10;99.90
16114;DHT22;8161;-33.910;151.156;2022-10-31T17:57:46;23.00;99.90